EHAK

A12-cpp Sea

A12-cpp Sea, The Netherlands
METAR EHAK 172055Z AUTO 12020KT 9999 NCD 11/08 Q1035 W///H///
Observed Flight Rules
Nov-17 @ 20:55 UTC (44 minutes ago) Visual Flight Rules
Wind Visibility Clouds
120° at 20 knots 10,000+ meters
  • Clear skies
Temperatures Readings
Current 11°C / 52°F
Dewpoint 8°C / 46°F
Humidity 82%
Altimeter 30.56" Hg
Pressure 1035 hPa
Elevation 50
METAR EHAK 172055Z AUTO 12020KT 9999 NCD 11/08 Q1035 W///H///
Observed Flight Rules
Nov-17 @ 20:55 UTC
(44 minutes ago)
VFR
Wind Visibility
120° at 20 knots 10,000+ meters
Clouds
  • Clear skies
Temperature Dewpoint
11°C / 52°F 8°C / 46°F
Humidity Altimeter Pressure
82% 30.56" Hg 1035 hPa